Time;durP1;ratioP1;P1;durP2;ratioP2;P2;SDS_P1;SDS_P2;PMS_P1;PMS_P2;Temp;Humidity;BMP_temperature;BMP_pressure;BME280_temperature;BME280_humidity;BME280_pressure;Samples;Min_cycle;Max_cycle;Signal;HPM_P1;HPM_P2
2022/08/01 00:01:49;;;;;;;;;3.00;3.00;;;;;23.54;56.86;101215.78;5096277;27;45270;-66
2022/08/01 00:04:15;;;;;;;;;1.00;1.00;;;;;23.58;55.96;101216.38;5097256;27;45157;-66
2022/08/01 00:06:40;;;;;;;;;0.00;0.00;;;;;23.59;56.39;101220.78;5096938;27;45560;-65
2022/08/01 00:09:05;;;;;;;;;1.50;1.50;;;;;23.65;56.35;101222.03;5078952;27;46133;-64
2022/08/01 00:11:31;;;;;;;;;0.75;0.75;;;;;23.61;56.54;101212.50;5079286;27;45246;-67
2022/08/01 00:13:56;;;;;;;;;1.00;1.00;;;;;23.66;56.21;101221.00;5097331;27;45328;-66
2022/08/01 00:16:24;;;;;;;;;2.00;1.00;;;;;23.54;56.33;101204.91;5097795;27;46080;-66
2022/08/01 00:18:51;;;;;;;;;1.00;1.00;;;;;23.55;55.86;101211.19;5097538;27;45785;-65
2022/08/01 00:21:17;;;;;;;;;0.50;0.50;;;;;23.61;56.49;101220.63;5096002;27;45392;-67
2022/08/01 00:23:43;;;;;;;;;1.75;1.75;;;;;23.54;56.31;101210.34;5097074;27;45520;-66
2022/08/01 00:26:08;;;;;;;;;1.00;1.00;;;;;23.55;56.62;101212.03;5095751;27;47052;-65
2022/08/01 00:28:34;;;;;;;;;1.50;0.50;;;;;23.48;56.62;101210.97;5096898;27;45446;-67
2022/08/01 00:30:59;;;;;;;;;1.00;1.00;;;;;23.48;56.49;101216.41;5097076;27;45321;-66
2022/08/01 00:33:25;;;;;;;;;1.00;1.00;;;;;23.50;56.55;101216.25;5096841;27;45290;-68
2022/08/01 00:35:50;;;;;;;;;3.00;1.50;;;;;23.56;56.13;101204.75;5095698;27;45861;-66
2022/08/01 00:38:15;;;;;;;;;1.50;0.75;;;;;23.46;55.73;101182.28;5096523;27;45475;-65
2022/08/01 00:40:41;;;;;;;;;2.00;2.00;;;;;23.46;56.72;101183.13;5097162;27;45311;-67
2022/08/01 00:43:06;;;;;;;;;0.75;0.75;;;;;23.49;56.42;101193.69;5097357;27;45612;-67
2022/08/01 00:45:32;;;;;;;;;1.00;1.00;;;;;23.42;56.30;101184.44;5096563;27;45267;-67
2022/08/01 00:47:57;;;;;;;;;0.50;0.50;;;;;23.54;56.08;101188.63;5077593;27;45374;-68
2022/08/01 00:50:23;;;;;;;;;1.00;1.00;;;;;23.57;56.16;101186.59;5096204;27;45737;-67
2022/08/01 00:52:49;;;;;;;;;0.25;0.25;;;;;23.56;56.26;101191.19;5078665;27;45552;-66
2022/08/01 00:55:16;;;;;;;;;0.25;0.25;;;;;23.51;55.63;101191.66;5096173;27;46126;-66
2022/08/01 00:57:42;;;;;;;;;0.60;0.60;;;;;23.44;56.41;101182.44;5078326;27;45538;-65
2022/08/01 01:00:08;;;;;;;;;0.75;0.75;;;;;23.50;56.34;101186.38;5096274;27;45300;-66
2022/08/01 01:02:35;;;;;;;;;1.00;1.00;;;;;23.52;55.88;101189.78;5077119;27;45299;-69
2022/08/01 01:05:00;;;;;;;;;0.00;0.00;;;;;23.32;56.57;101183.69;5096675;27;45350;-66
2022/08/01 01:07:42;;;;;;;;;1.00;1.00;;;;;23.22;56.59;101177.47;5078257;27;45821;-64
2022/08/01 01:10:17;;;;;;;;;2.50;0.75;;;;;23.34;56.97;101189.81;5096767;27;45295;-67
2022/08/01 01:13:09;;;;;;;;;0.25;0.25;;;;;23.26;56.86;101187.00;5078923;27;45307;-66
2022/08/01 01:15:47;;;;;;;;;1.00;1.00;;;;;23.20;56.71;101188.47;5099894;27;45416;-67
2022/08/01 01:18:30;;;;;;;;;1.50;0.50;;;;;23.16;57.08;101175.34;5100242;27;45453;-67
2022/08/01 01:21:17;;;;;;;;;1.00;1.00;;;;;23.23;57.21;101184.59;5099844;27;45472;-65
2022/08/01 01:24:05;;;;;;;;;0.00;0.00;;;;;23.29;56.88;101183.09;5082204;27;45520;-69
2022/08/01 01:26:40;;;;;;;;;0.50;0.50;;;;;23.28;56.91;101181.41;5099101;27;45333;-69
2022/08/01 01:29:11;;;;;;;;;0.50;0.50;;;;;23.34;56.72;101184.38;5097675;27;45272;-66
2022/08/01 01:31:49;;;;;;;;;0.75;0.75;;;;;23.36;56.65;101190.50;5079549;28;45883;-70
2022/08/01 01:34:17;;;;;;;;;1.00;1.00;;;;;23.29;56.70;101183.97;5079739;28;45537;-69
2022/08/01 01:36:44;;;;;;;;;2.00;0.50;;;;;23.32;57.00;101190.97;5063311;27;46118;-66
2022/08/01 01:39:11;;;;;;;;;1.00;1.00;;;;;23.28;57.36;101187.69;5100135;27;45369;-66
2022/08/01 01:41:38;;;;;;;;;0.25;0.25;;;;;23.12;57.41;101179.38;5100171;27;45373;-65
2022/08/01 01:44:05;;;;;;;;;0.00;0.00;;;;;23.19;57.43;101180.50;5100194;27;45491;-66
2022/08/01 01:46:31;;;;;;;;;1.00;1.00;;;;;23.26;56.76;101184.28;5098296;27;48535;-69
2022/08/01 01:48:59;;;;;;;;;0.60;0.60;;;;;23.29;56.98;101189.38;5098439;27;45420;-65
2022/08/01 01:51:27;;;;;;;;;2.00;0.00;;;;;23.23;57.06;101179.16;5099369;27;45283;-68
2022/08/01 01:53:54;;;;;;;;;1.50;0.50;;;;;23.16;57.60;101181.63;5081009;27;45417;-66
2022/08/01 01:56:21;;;;;;;;;2.00;1.00;;;;;23.22;57.53;101174.75;5099133;27;45317;-69
2022/08/01 01:58:53;;;;;;;;;1.00;1.00;;;;;23.25;56.91;101169.00;5098424;27;45371;-69
2022/08/01 02:01:21;;;;;;;;;0.50;0.50;;;;;23.24;57.30;101172.72;5072122;28;45327;-67
2022/08/01 02:03:49;;;;;;;;;0.00;0.00;;;;;23.16;58.03;101161.78;5079395;28;45315;-69
2022/08/01 02:06:16;;;;;;;;;1.00;1.00;;;;;23.22;57.38;101174.75;5061538;28;47057;-69
2022/08/01 02:08:42;;;;;;;;;1.25;1.00;;;;;23.17;57.36;101168.91;5079948;28;45339;-66
2022/08/01 02:11:21;;;;;;;;;2.00;2.00;;;;;23.17;57.86;101177.03;5079618;28;45403;-66
2022/08/01 02:13:53;;;;;;;;;1.00;1.00;;;;;23.11;58.51;101183.09;5089278;27;45385;-66
2022/08/01 02:16:22;;;;;;;;;1.00;1.00;;;;;23.07;58.13;101170.84;5098478;27;45463;-67
2022/08/01 02:18:48;;;;;;;;;6.00;3.75;;;;;23.03;58.36;101167.56;5098900;27;45241;-65
2022/08/01 02:21:19;;;;;;;;;6.00;6.00;;;;;23.14;58.75;101171.94;5099228;27;45611;-67
2022/08/01 02:23:45;;;;;;;;;6.00;6.00;;;;;23.12;58.88;101171.25;5097955;27;45307;-66
2022/08/01 02:26:15;;;;;;;;;4.00;4.00;;;;;23.16;58.73;101175.34;5097929;27;46153;-68
2022/08/01 02:28:47;;;;;;;;;3.00;3.00;;;;;23.15;58.65;101168.22;5099063;27;45427;-68
2022/08/01 02:31:16;;;;;;;;;6.00;3.50;;;;;23.24;58.36;101183.59;5079897;27;45872;-67
2022/08/01 02:33:45;;;;;;;;;3.25;3.25;;;;;23.12;58.79;101160.38;5078361;28;45255;-70
2022/08/01 02:36:12;;;;;;;;;4.00;3.00;;;;;23.21;58.60;101183.91;5076603;28;47547;-67
2022/08/01 02:38:42;;;;;;;;;5.00;3.00;;;;;23.26;58.88;101178.84;5097224;27;45243;-66
2022/08/01 02:41:12;;;;;;;;;2.00;2.00;;;;;23.28;58.65;101179.53;5096585;27;45339;-66
2022/08/01 02:43:48;;;;;;;;;2.00;2.00;;;;;23.25;58.67;101163.56;5098665;27;45549;-66
2022/08/01 02:46:22;;;;;;;;;2.75;1.00;;;;;23.34;58.10;101178.94;5098214;27;45441;-68
2022/08/01 02:48:52;;;;;;;;;1.00;1.00;;;;;23.32;58.16;101161.13;5096374;27;45400;-67
2022/08/01 02:51:21;;;;;;;;;1.00;1.00;;;;;23.34;58.80;101170.81;5098194;27;45280;-68
2022/08/01 02:53:49;;;;;;;;;3.25;1.50;;;;;23.28;58.65;101170.56;5098112;27;45235;-66
2022/08/01 02:56:16;;;;;;;;;2.00;2.00;;;;;23.23;59.02;101166.44;5097172;27;45417;-67
2022/08/01 02:58:43;;;;;;;;;0.60;0.60;;;;;23.18;58.90;101173.34;5098299;27;45362;-69
2022/08/01 03:01:10;;;;;;;;;1.50;1.00;;;;;23.16;58.51;101170.78;5097706;27;45326;-68
2022/08/01 03:03:37;;;;;;;;;1.75;1.75;;;;;23.14;58.80;101163.78;5079510;27;45259;-69
2022/08/01 03:06:04;;;;;;;;;1.00;1.00;;;;;23.22;58.54;101161.19;5097973;27;45203;-68
2022/08/01 03:08:31;;;;;;;;;0.75;0.75;;;;;23.16;59.24;101169.91;5096502;27;45861;-67
2022/08/01 03:11:00;;;;;;;;;1.00;1.00;;;;;23.06;59.03;101152.88;5080695;27;45490;-66
2022/08/01 03:13:29;;;;;;;;;2.00;2.00;;;;;23.15;58.67;101157.34;5097778;27;45171;-70
2022/08/01 03:15:57;;;;;;;;;2.50;1.25;;;;;23.25;57.68;101166.28;5097921;27;45476;-67
2022/08/01 03:18:25;;;;;;;;;1.50;1.50;;;;;23.24;57.74;101170.88;5079460;27;45352;-67
2022/08/01 03:20:54;;;;;;;;;1.00;1.00;;;;;23.27;57.65;101172.41;5077846;27;45629;-67
2022/08/01 03:23:22;;;;;;;;;1.25;1.25;;;;;23.31;57.93;101164.81;5080071;27;45418;-68
2022/08/01 03:25:50;;;;;;;;;1.00;0.00;;;;;23.33;57.93;101166.38;5096846;27;45474;-69
2022/08/01 03:28:17;;;;;;;;;1.00;1.00;;;;;23.29;58.01;101167.69;5097693;27;45335;-66
2022/08/01 03:30:44;;;;;;;;;0.75;0.75;;;;;23.20;58.23;101171.34;5083105;27;45365;-69
2022/08/01 03:33:09;;;;;;;;;1.00;1.00;;;;;23.15;58.77;101166.34;5077587;28;45489;-68
2022/08/01 03:35:48;;;;;;;;;3.00;1.75;;;;;23.16;58.64;101175.34;5075531;28;48161;-69
2022/08/01 03:38:18;;;;;;;;;1.75;1.75;;;;;23.25;58.40;101180.72;5084991;27;45500;-68
2022/08/01 03:40:49;;;;;;;;;1.00;1.00;;;;;23.27;58.14;101171.56;5096904;27;45486;-66
2022/08/01 03:43:35;;;;;;;;;1.50;1.50;;;;;23.22;58.84;101172.88;5097507;27;45431;-67
2022/08/01 03:46:07;;;;;;;;;1.00;1.00;;;;;23.19;58.76;101178.63;5096769;27;45574;-67
2022/08/01 03:48:39;;;;;;;;;1.00;1.00;;;;;23.24;58.07;101175.44;5097223;27;45499;-68
2022/08/01 03:51:06;;;;;;;;;1.00;1.00;;;;;23.20;58.26;101161.34;5096711;27;45329;-67
2022/08/01 03:53:33;;;;;;;;;1.00;1.00;;;;;23.28;58.04;101165.13;5097498;27;45343;-66
2022/08/01 03:56:02;;;;;;;;;0.00;0.00;;;;;23.15;57.67;101151.94;5096800;27;46405;-67
2022/08/01 03:58:29;;;;;;;;;1.00;1.00;;;;;23.32;57.50;101178.25;5096323;27;45524;-67
2022/08/01 04:00:56;;;;;;;;;4.50;2.25;;;;;23.23;57.15;101162.88;5097156;27;45480;-68
2022/08/01 04:03:22;;;;;;;;;0.25;0.25;;;;;23.33;56.91;101177.25;5096635;27;45606;-67
2022/08/01 04:05:48;;;;;;;;;0.00;0.00;;;;;23.21;57.46;101170.31;5078219;27;45405;-66
2022/08/01 04:08:13;;;;;;;;;0.50;0.50;;;;;23.29;57.62;101180.41;5097386;27;45567;-66
2022/08/01 04:10:39;;;;;;;;;0.50;0.50;;;;;23.29;57.17;101174.97;5098213;27;45245;-72
2022/08/01 04:13:04;;;;;;;;;0.25;0.25;;;;;23.29;57.98;101172.25;5096426;27;45238;-66
2022/08/01 04:15:30;;;;;;;;;1.00;1.00;;;;;23.31;57.57;101173.84;5097129;27;45299;-66
2022/08/01 04:17:55;;;;;;;;;1.00;1.00;;;;;23.25;57.93;101169.84;5096981;27;45365;-66
2022/08/01 04:20:21;;;;;;;;;0.50;0.50;;;;;23.18;57.54;101148.94;5097391;27;45338;-66
2022/08/01 04:22:46;;;;;;;;;0.50;0.50;;;;;23.19;57.46;101156.91;5098090;27;45328;-65
2022/08/01 04:25:21;;;;;;;;;1.00;1.00;;;;;23.24;57.09;101161.88;5097252;27;46085;-67
2022/08/01 04:27:50;;;;;;;;;0.25;0.25;;;;;23.24;57.32;101164.59;5096820;27;45302;-67
2022/08/01 04:30:19;;;;;;;;;0.00;0.00;;;;;23.18;57.62;101159.78;5067396;28;45561;-65
2022/08/01 04:32:46;;;;;;;;;1.00;1.00;;;;;23.13;57.64;101160.22;5084684;27;45548;-66
2022/08/01 04:35:18;;;;;;;;;0.25;0.25;;;;;23.06;58.21;101147.44;5095811;27;46260;-67
2022/08/01 04:37:48;;;;;;;;;1.00;1.00;;;;;23.04;58.24;101144.00;5096674;27;45354;-66
2022/08/01 04:40:14;;;;;;;;;0.20;0.20;;;;;23.06;58.06;101152.88;5077640;27;45472;-67
2022/08/01 04:42:40;;;;;;;;;1.50;0.50;;;;;23.06;57.70;101147.44;5078247;27;45572;-66
2022/08/01 04:45:08;;;;;;;;;1.00;1.00;;;;;23.06;58.00;101161.88;5096632;27;46112;-66
2022/08/01 04:47:35;;;;;;;;;0.80;0.80;;;;;23.04;58.17;101157.56;5097511;27;45385;-67
2022/08/01 04:50:06;;;;;;;;;1.00;1.00;;;;;23.01;58.72;101155.19;5081269;27;45449;-67
2022/08/01 04:52:35;;;;;;;;;1.25;1.25;;;;;22.99;59.10;101160.75;5100155;27;45346;-66
2022/08/01 04:55:01;;;;;;;;;0.75;0.75;;;;;23.01;59.27;101161.44;5097354;27;45408;-66
2022/08/01 04:57:27;;;;;;;;;1.00;1.00;;;;;23.04;58.84;101165.72;5082012;27;45401;-66
2022/08/01 04:59:56;;;;;;;;;0.75;0.75;;;;;23.05;58.91;101170.13;5081915;27;45329;-67
2022/08/01 05:02:22;;;;;;;;;1.00;1.00;;;;;23.04;58.04;101168.44;5100023;27;45619;-67
2022/08/01 05:04:48;;;;;;;;;2.00;1.00;;;;;22.98;58.34;101160.91;5099857;27;45507;-66
2022/08/01 05:07:15;;;;;;;;;0.50;0.50;;;;;23.00;58.89;101176.03;5099382;27;45611;-67
2022/08/01 05:09:42;;;;;;;;;1.50;1.50;;;;;22.94;58.73;101172.06;5100545;27;45253;-66
2022/08/01 05:12:09;;;;;;;;;1.25;1.25;;;;;22.95;58.67;101181.06;5065682;27;45604;-67
2022/08/01 05:14:34;;;;;;;;;2.00;0.75;;;;;22.97;58.89;101172.78;5099943;27;46108;-66
2022/08/01 05:17:03;;;;;;;;;1.00;1.00;;;;;23.05;59.06;101194.53;5082387;27;45382;-66
2022/08/01 05:19:47;;;;;;;;;0.25;0.25;;;;;23.03;58.79;101191.13;5099803;27;45633;-65
2022/08/01 05:22:15;;;;;;;;;1.00;1.00;;;;;22.95;59.22;101181.91;5062231;28;45452;-67
2022/08/01 05:24:42;;;;;;;;;1.00;1.00;;;;;23.00;58.26;101194.16;5078675;28;45266;-67
2022/08/01 05:27:07;;;;;;;;;0.80;0.80;;;;;22.95;58.19;101181.91;5079113;28;45284;-67
2022/08/01 05:29:33;;;;;;;;;0.50;0.50;;;;;22.99;58.56;101192.47;5084256;27;45457;-69
2022/08/01 05:31:59;;;;;;;;;2.00;2.00;;;;;22.99;58.58;101195.16;5099470;27;45596;-67
2022/08/01 05:34:25;;;;;;;;;2.50;1.50;;;;;22.92;58.97;101171.38;5099149;27;46538;-67
2022/08/01 05:36:50;;;;;;;;;1.50;1.50;;;;;22.92;58.89;101173.25;5099710;27;45459;-66
2022/08/01 05:39:16;;;;;;;;;1.00;1.00;;;;;22.98;58.33;101188.03;5100364;27;45293;-67
2022/08/01 05:41:41;;;;;;;;;1.00;1.00;;;;;22.91;59.00;101190.50;5099867;27;45654;-69
2022/08/01 05:44:07;;;;;;;;;1.75;0.25;;;;;22.93;59.12;101189.34;5096891;27;45484;-67
2022/08/01 05:46:35;;;;;;;;;1.50;1.00;;;;;22.93;58.86;101185.78;5098024;27;45433;-67
2022/08/01 05:49:02;;;;;;;;;1.00;1.00;;;;;22.92;58.03;101198.50;5080721;27;45419;-66
2022/08/01 05:51:28;;;;;;;;;0.25;0.25;;;;;22.87;58.01;101189.09;5098345;27;45534;-67
2022/08/01 05:53:54;;;;;;;;;1.00;1.00;;;;;22.85;58.62;101201.97;5098924;27;45338;-67
2022/08/01 05:56:21;;;;;;;;;2.00;0.75;;;;;22.78;58.20;101174.53;5098228;27;45424;-66
2022/08/01 05:58:46;;;;;;;;;1.00;1.00;;;;;22.82;58.02;101180.53;5096763;27;45412;-67
2022/08/01 06:01:12;;;;;;;;;1.75;1.75;;;;;22.76;58.49;101171.13;5098687;27;45260;-66
2022/08/01 06:03:37;;;;;;;;;1.75;1.00;;;;;22.94;58.86;101212.75;5097304;27;45370;-65
2022/08/01 06:06:03;;;;;;;;;3.00;2.00;;;;;22.86;58.86;101198.22;5099547;27;45441;-65
2022/08/01 06:08:29;;;;;;;;;2.25;2.25;;;;;22.89;58.66;101206.91;5080073;27;45357;-64
2022/08/01 06:10:59;;;;;;;;;3.75;2.00;;;;;22.94;58.37;101207.34;5081021;27;45439;-67
2022/08/01 06:13:44;;;;;;;;;1.00;1.00;;;;;22.98;58.37;101204.31;5080571;27;46299;-68
2022/08/01 06:16:10;;;;;;;;;1.00;1.00;;;;;22.95;58.42;101206.34;5097326;27;45349;-65
2022/08/01 06:18:35;;;;;;;;;1.50;1.50;;;;;22.93;58.26;101207.50;5099105;27;45877;-69
2022/08/01 06:21:00;;;;;;;;;1.00;1.00;;;;;22.88;58.33;101201.66;5097697;27;45651;-65
2022/08/01 06:23:26;;;;;;;;;3.00;1.75;;;;;22.86;58.26;101200.94;5098750;27;46130;-65
2022/08/01 06:25:53;;;;;;;;;1.00;1.00;;;;;22.83;58.63;101210.25;5097382;27;45498;-63
2022/08/01 06:28:18;;;;;;;;;2.00;2.00;;;;;22.79;58.51;101211.53;5098984;27;45484;-64
2022/08/01 06:30:44;;;;;;;;;2.00;2.00;;;;;22.72;58.08;101198.69;5083734;27;45597;-66
2022/08/01 06:33:09;;;;;;;;;2.00;1.00;;;;;22.71;58.08;101208.69;5078402;28;45274;-65
2022/08/01 06:35:34;;;;;;;;;1.00;1.00;;;;;22.73;58.36;101212.09;5077929;28;45181;-66
2022/08/01 06:38:01;;;;;;;;;1.25;1.25;;;;;22.70;58.65;101204.28;5085862;27;45644;-66
2022/08/01 06:40:26;;;;;;;;;3.00;3.00;;;;;22.63;58.43;101204.00;5098510;27;45492;-69
2022/08/01 06:42:52;;;;;;;;;1.00;1.00;;;;;22.65;59.24;101209.28;5098152;27;46312;-65
2022/08/01 06:45:17;;;;;;;;;1.00;1.00;;;;;22.60;58.84;101198.03;5098501;27;45181;-67
2022/08/01 06:47:44;;;;;;;;;0.25;0.25;;;;;22.66;58.92;101208.31;5098072;27;45369;-67
2022/08/01 06:50:11;;;;;;;;;2.00;2.00;;;;;22.70;59.25;101209.72;5097608;27;45412;-67
2022/08/01 06:52:37;;;;;;;;;3.00;3.00;;;;;22.74;59.59;101210.25;5098211;27;45861;-66
2022/08/01 06:55:03;;;;;;;;;3.50;2.25;;;;;22.74;59.70;101202.97;5097985;27;45283;-66
2022/08/01 06:57:29;;;;;;;;;7.50;7.50;;;;;22.70;59.48;101198.84;5096678;27;45336;-65
2022/08/01 06:59:55;;;;;;;;;1.75;1.75;;;;;22.67;60.09;101210.00;5098832;27;45624;-66
2022/08/01 07:02:20;;;;;;;;;4.50;2.00;;;;;22.56;60.02;101191.22;5097235;27;45269;-68
2022/08/01 07:04:46;;;;;;;;;1.75;1.75;;;;;22.86;59.12;101209.94;5098362;27;45244;-68
2022/08/01 07:07:11;;;;;;;;;3.50;1.25;;;;;22.88;59.27;101202.50;5097876;27;45393;-67
2022/08/01 07:09:37;;;;;;;;;3.00;1.00;;;;;23.01;58.94;101206.72;5097310;27;45603;-67
2022/08/01 07:12:03;;;;;;;;;1.25;1.25;;;;;23.09;58.69;101204.09;5097598;27;45429;-66
2022/08/01 07:14:29;;;;;;;;;2.00;2.00;;;;;23.07;58.15;101200.69;5096527;27;45445;-67
2022/08/01 07:16:54;;;;;;;;;2.50;1.00;;;;;23.28;58.29;101214.81;5098024;27;45446;-68
2022/08/01 07:19:20;;;;;;;;;2.25;2.25;;;;;23.35;57.99;101199.66;5098202;27;45431;-69
2022/08/01 07:21:45;;;;;;;;;3.00;3.00;;;;;23.46;57.73;101207.56;5096696;27;47463;-69
2022/08/01 07:24:13;;;;;;;;;1.50;1.50;;;;;23.55;57.23;101200.34;5097996;27;45350;-68
2022/08/01 07:26:39;;;;;;;;;1.25;1.25;;;;;23.65;57.03;101216.59;5091229;27;45487;-68
2022/08/01 07:29:04;;;;;;;;;5.00;2.00;;;;;23.67;57.03;101201.00;5098459;27;45303;-65
2022/08/01 07:31:30;;;;;;;;;4.25;4.25;;;;;23.77;56.93;101215.34;5079953;27;46947;-66
2022/08/01 07:33:55;;;;;;;;;5.75;5.75;;;;;23.80;56.81;101215.03;5079460;27;45336;-68
2022/08/01 07:36:21;;;;;;;;;2.00;2.00;;;;;23.84;57.11;101216.44;5097458;27;45241;-67
2022/08/01 07:38:47;;;;;;;;;3.00;3.00;;;;;23.79;56.68;101218.75;5097947;27;45509;-69
2022/08/01 07:41:13;;;;;;;;;4.00;4.00;;;;;23.61;57.22;101212.50;5096762;27;45386;-67
2022/08/01 07:43:38;;;;;;;;;2.25;2.25;;;;;23.64;57.09;101223.03;5085196;27;45353;-69
2022/08/01 07:46:04;;;;;;;;;3.25;3.00;;;;;23.76;56.80;101224.50;5077205;28;45362;-69
2022/08/01 07:48:30;;;;;;;;;3.00;3.00;;;;;23.73;56.98;101228.38;5087510;27;45510;-68
2022/08/01 07:50:55;;;;;;;;;4.00;4.00;;;;;23.68;57.29;101238.00;5097025;27;45451;-67
2022/08/01 07:53:21;;;;;;;;;6.00;3.50;;;;;23.80;57.17;101226.75;5095474;27;45448;-68
2022/08/01 07:55:47;;;;;;;;;4.50;4.00;;;;;23.95;56.75;101234.31;5097193;27;45465;-66
2022/08/01 07:58:13;;;;;;;;;4.00;4.00;;;;;24.03;56.41;101231.69;5079190;27;45386;-66
2022/08/01 08:00:38;;;;;;;;;5.75;3.25;;;;;24.03;56.00;101248.00;5085630;27;45496;-67
2022/08/01 08:03:04;;;;;;;;;0.50;0.50;;;;;23.90;55.96;101221.22;5076873;28;45338;-65
2022/08/01 08:05:29;;;;;;;;;2.00;1.50;;;;;24.02;55.93;101222.69;5095121;27;45539;-70
2022/08/01 08:07:55;;;;;;;;;4.25;4.25;;;;;23.93;56.28;101226.34;5097614;27;45208;-67
2022/08/01 08:10:20;;;;;;;;;5.25;3.50;;;;;23.97;55.59;101227.75;5097238;27;45518;-66
2022/08/01 08:12:46;;;;;;;;;3.75;3.75;;;;;24.10;55.35;101232.78;5097051;27;45811;-68
2022/08/01 08:15:12;;;;;;;;;5.25;4.25;;;;;24.29;55.74;101239.88;5095823;27;45232;-69
2022/08/01 08:17:38;;;;;;;;;3.50;3.50;;;;;24.31;54.83;101236.00;5078990;27;45386;-69
2022/08/01 08:20:06;;;;;;;;;3.75;3.75;;;;;24.39;54.87;101235.22;5078286;27;46764;-65
2022/08/01 08:22:31;;;;;;;;;5.00;4.25;;;;;24.58;54.19;101236.84;5095800;27;45462;-67
2022/08/01 08:24:57;;;;;;;;;4.25;4.25;;;;;24.75;53.83;101230.50;5096849;27;45451;-67
2022/08/01 08:27:22;;;;;;;;;3.00;3.00;;;;;24.82;53.58;101227.97;5096570;27;45365;-69
2022/08/01 08:29:47;;;;;;;;;4.50;3.00;;;;;25.14;52.38;101239.03;5096607;27;45422;-68
2022/08/01 08:32:13;;;;;;;;;3.75;3.75;;;;;25.28;51.92;101230.22;5096498;27;45397;-68
2022/08/01 08:34:38;;;;;;;;;4.25;4.25;;;;;25.37;51.82;101228.34;5086093;27;45340;-67
2022/08/01 08:37:04;;;;;;;;;3.75;3.75;;;;;25.27;51.90;101233.97;5076578;28;45300;-67
2022/08/01 08:39:29;;;;;;;;;2.50;2.50;;;;;25.20;51.63;101224.75;5084243;27;45384;-67
2022/08/01 08:41:57;;;;;;;;;4.25;3.25;;;;;25.23;51.64;101227.13;5078277;27;45360;-66
2022/08/01 08:44:23;;;;;;;;;2.40;2.40;;;;;25.35;51.66;101224.09;5079824;27;45361;-67
2022/08/01 08:46:55;;;;;;;;;4.00;4.00;;;;;25.50;51.62;101222.44;5097428;27;45299;-67
2022/08/01 08:49:28;;;;;;;;;2.50;1.25;;;;;25.66;50.87;101217.03;5096914;27;47276;-69
2022/08/01 08:51:59;;;;;;;;;1.80;1.80;;;;;25.84;50.01;101215.00;5096025;27;45373;-70
2022/08/01 08:54:25;;;;;;;;;2.50;2.50;;;;;25.94;49.78;101206.66;5078599;27;45247;-69
2022/08/01 08:56:52;;;;;;;;;3.75;3.75;;;;;26.12;49.51;101214.66;5096757;27;45362;-69
2022/08/01 08:59:18;;;;;;;;;6.60;3.60;;;;;26.27;49.16;101214.78;5096206;27;45440;-70
2022/08/01 09:01:44;;;;;;;;;3.75;2.25;;;;;26.18;49.21;101200.34;5092676;27;45348;-70
2022/08/01 09:04:10;;;;;;;;;2.00;2.00;;;;;26.27;48.99;101192.97;5096388;27;45608;-69
2022/08/01 09:06:36;;;;;;;;;3.00;2.00;;;;;26.31;48.39;101208.00;5096208;27;45472;-68
2022/08/01 09:09:03;;;;;;;;;2.00;2.00;;;;;26.36;48.23;101209.19;5094736;27;47651;-68
2022/08/01 09:11:29;;;;;;;;;3.80;2.20;;;;;26.35;48.16;101207.47;5095959;27;45836;-67
2022/08/01 09:14:06;;;;;;;;;2.00;2.00;;;;;26.45;48.30;101221.78;5078646;27;45282;-69
2022/08/01 09:16:32;;;;;;;;;4.00;4.00;;;;;26.49;47.84;101229.63;5096742;27;45330;-70
2022/08/01 09:19:12;;;;;;;;;3.75;3.50;;;;;26.21;48.01;101226.41;5097147;27;45382;-70
2022/08/01 09:21:38;;;;;;;;;6.20;3.60;;;;;26.07;48.44;101225.22;5095634;27;45281;-70
2022/08/01 09:24:05;;;;;;;;;4.50;4.00;;;;;26.12;48.63;101231.84;5096278;27;45272;-69
2022/08/01 09:26:35;;;;;;;;;4.00;2.00;;;;;26.04;48.88;101223.69;5096112;27;45561;-67
2022/08/01 09:29:04;;;;;;;;;4.50;2.75;;;;;26.06;48.51;101224.38;5095718;27;46322;-68
2022/08/01 09:31:41;;;;;;;;;6.00;5.00;;;;;25.97;49.21;101221.81;5077117;27;45815;-70
2022/08/01 09:34:08;;;;;;;;;3.00;2.20;;;;;25.88;49.16;101226.41;5091648;27;45325;-68
2022/08/01 09:36:51;;;;;;;;;3.00;3.00;;;;;25.76;49.17;101228.63;5079121;28;45416;-69
2022/08/01 09:39:18;;;;;;;;;5.00;4.25;;;;;25.55;49.81;101214.63;5078624;28;45800;-68
2022/08/01 09:41:43;;;;;;;;;2.20;2.20;;;;;25.48;50.25;101213.56;5085691;27;46745;-70
2022/08/01 09:44:09;;;;;;;;;3.75;3.75;;;;;25.48;50.15;101219.88;5098253;27;45417;-69
2022/08/01 09:46:36;;;;;;;;;4.25;3.00;;;;;25.44;50.05;101220.38;5100058;27;45600;-68
2022/08/01 09:49:04;;;;;;;;;2.50;2.00;;;;;25.36;49.98;101223.94;5098935;27;45296;-68
2022/08/01 09:51:35;;;;;;;;;3.00;3.00;;;;;25.34;50.27;101225.13;5096293;27;45333;-68
2022/08/01 09:54:04;;;;;;;;;4.00;2.50;;;;;25.29;50.14;101233.81;5098837;27;45263;-68
2022/08/01 09:56:40;;;;;;;;;2.00;2.00;;;;;25.26;50.46;101235.00;5081477;27;45594;-66
2022/08/01 09:59:05;;;;;;;;;3.75;3.75;;;;;25.29;50.41;101231.06;5098864;27;45457;-67
2022/08/01 10:01:48;;;;;;;;;3.25;3.25;;;;;25.37;50.30;101236.53;5097919;27;45559;-68
2022/08/01 10:04:17;;;;;;;;;4.20;4.00;;;;;25.53;49.72;101233.00;5098801;27;45251;-68
2022/08/01 10:06:49;;;;;;;;;3.00;3.00;;;;;25.75;49.12;101237.81;5099086;27;45436;-68
2022/08/01 10:09:26;;;;;;;;;4.25;3.50;;;;;25.79;49.06;101231.03;5098203;27;45418;-70
2022/08/01 10:11:52;;;;;;;;;6.20;6.20;;;;;25.70;49.35;101218.41;5098597;27;45438;-67
2022/08/01 10:14:19;;;;;;;;;4.75;4.00;;;;;25.79;49.00;101222.84;5080930;27;45469;-71
2022/08/01 10:16:47;;;;;;;;;3.40;3.40;;;;;26.14;48.52;101218.91;5099338;27;45432;-67
2022/08/01 10:19:14;;;;;;;;;3.40;3.40;;;;;26.39;48.02;101225.19;5098837;27;45365;-69
2022/08/01 10:21:39;;;;;;;;;3.40;3.40;;;;;26.51;46.44;101227.56;5097912;27;45531;-68
2022/08/01 10:24:05;;;;;;;;;2.00;2.00;;;;;26.48;46.22;101236.09;5099167;27;45511;-68
2022/08/01 10:26:34;;;;;;;;;4.50;4.50;;;;;26.58;46.65;101229.44;5099520;27;45479;-70
2022/08/01 10:29:01;;;;;;;;;2.60;2.60;;;;;26.78;46.75;101235.31;5100139;27;45516;-68
2022/08/01 10:31:30;;;;;;;;;5.60;3.60;;;;;26.88;46.15;101232.41;5098510;27;45445;-67
2022/08/01 10:33:57;;;;;;;;;3.60;3.60;;;;;27.18;45.74;101247.13;5094392;27;45511;-68
2022/08/01 10:36:24;;;;;;;;;4.00;4.00;;;;;27.16;45.58;101235.53;5078459;28;45298;-71
2022/08/01 10:38:50;;;;;;;;;3.80;3.80;;;;;27.00;46.01;101217.34;5060107;28;45414;-68
2022/08/01 10:41:15;;;;;;;;;4.00;4.00;;;;;26.91;46.55;101230.16;5078185;27;45332;-68
2022/08/01 10:43:41;;;;;;;;;5.00;5.00;;;;;26.70;46.63;101229.91;5098525;27;45321;-68
2022/08/01 10:46:08;;;;;;;;;3.75;3.75;;;;;26.45;47.25;101235.44;5097750;27;45620;-68
2022/08/01 10:48:46;;;;;;;;;6.60;3.60;;;;;26.42;47.29;101235.75;5080462;27;45430;-67
2022/08/01 10:51:15;;;;;;;;;3.40;3.40;;;;;26.23;47.50;101225.19;5098423;27;45470;-71
2022/08/01 10:53:48;;;;;;;;;5.40;3.00;;;;;26.22;47.02;101228.97;5097428;27;45393;-67
2022/08/01 10:56:13;;;;;;;;;6.00;4.00;;;;;26.27;47.34;101214.78;5098442;27;45329;-68
2022/08/01 10:58:43;;;;;;;;;4.25;4.25;;;;;26.36;47.27;101217.38;5098033;27;45438;-70
2022/08/01 11:01:18;;;;;;;;;5.20;5.20;;;;;26.61;46.83;101228.22;5098354;27;45374;-69
2022/08/01 11:04:05;;;;;;;;;4.80;4.80;;;;;26.43;47.22;101228.41;5097363;27;45407;-70
2022/08/01 11:06:34;;;;;;;;;6.25;6.25;;;;;26.61;47.58;101220.03;5098823;27;45382;-71
2022/08/01 11:09:05;;;;;;;;;4.20;4.20;;;;;26.85;46.73;101222.69;5096957;27;47253;-70
2022/08/01 11:11:31;;;;;;;;;2.60;2.60;;;;;26.77;46.36;101228.16;5098601;27;45459;-70
2022/08/01 11:14:17;;;;;;;;;4.75;4.75;;;;;26.66;46.75;101225.81;5091006;27;47393;-68
2022/08/01 11:16:42;;;;;;;;;3.60;3.00;;;;;26.81;46.36;101229.50;5098398;27;45424;-70
2022/08/01 11:19:08;;;;;;;;;3.00;3.00;;;;;26.95;45.98;101226.03;5097662;27;45372;-69
2022/08/01 11:21:52;;;;;;;;;7.50;5.75;;;;;27.17;45.46;101229.03;5098293;27;45318;-68
2022/08/01 11:24:46;;;;;;;;;6.00;6.00;;;;;27.23;45.29;101217.44;5097269;27;45423;-69
2022/08/01 11:27:17;;;;;;;;;5.80;5.40;;;;;27.17;45.71;101220.84;5098048;27;45399;-69
2022/08/01 11:29:42;;;;;;;;;5.40;4.20;;;;;26.84;45.94;101222.88;5097841;27;47463;-67